createdAt,value
2022-12-26T00:00:03.506Z,9.50
2022-12-26T00:01:03.442Z,9.50
2022-12-26T00:02:03.403Z,9.50
2022-12-26T00:03:03.423Z,9.50
2022-12-26T00:04:03.473Z,9.50
2022-12-26T00:05:03.351Z,9.50
2022-12-26T00:06:03.268Z,9.50
2022-12-26T00:07:03.266Z,9.50
2022-12-26T00:08:03.070Z,9.50
2022-12-26T00:09:03.043Z,9.60
2022-12-26T00:10:03.088Z,9.60
2022-12-26T00:11:03.088Z,9.50
2022-12-26T00:12:03.091Z,9.60
2022-12-26T00:13:37.787Z,9.60
2022-12-26T00:14:03.152Z,9.60
2022-12-26T00:15:03.168Z,9.60
2022-12-26T00:16:03.194Z,9.60
2022-12-26T00:17:03.063Z,9.60
2022-12-26T00:18:03.109Z,9.60
2022-12-26T00:19:03.313Z,9.60
2022-12-26T00:20:02.974Z,9.60
2022-12-26T00:21:02.896Z,9.60
2022-12-26T00:22:02.987Z,9.60
2022-12-26T00:23:02.873Z,9.60
2022-12-26T00:24:02.877Z,9.60
2022-12-26T00:25:02.719Z,9.60
2022-12-26T00:26:02.714Z,9.60
2022-12-26T00:27:02.656Z,9.60
2022-12-26T00:28:03.430Z,9.60
2022-12-26T00:29:03.308Z,9.60
2022-12-26T00:30:03.361Z,9.60
2022-12-26T00:31:03.112Z,9.60
2022-12-26T00:32:03.139Z,9.60
2022-12-26T00:33:03.092Z,9.70
2022-12-26T00:34:02.957Z,9.60
2022-12-26T00:35:02.964Z,9.60
2022-12-26T00:36:03.054Z,9.70
2022-12-26T00:37:02.957Z,9.60
2022-12-26T00:38:02.918Z,9.70
2022-12-26T00:39:02.951Z,9.70
2022-12-26T00:40:02.572Z,9.70
2022-12-26T00:41:03.594Z,9.70
2022-12-26T00:42:03.577Z,9.70
2022-12-26T00:43:02.698Z,9.70
2022-12-26T00:44:03.636Z,9.70
2022-12-26T00:45:02.576Z,9.70
2022-12-26T00:46:02.648Z,9.70
2022-12-26T00:47:02.602Z,9.70
2022-12-26T00:48:03.593Z,9.70
2022-12-26T00:49:03.447Z,9.70
2022-12-26T00:50:12.063Z,9.70
2022-12-26T00:51:03.388Z,9.70
2022-12-26T00:52:03.390Z,9.70
2022-12-26T00:53:03.333Z,9.70
2022-12-26T00:54:03.351Z,9.70
2022-12-26T00:55:03.258Z,9.70
2022-12-26T00:56:03.185Z,9.70
2022-12-26T00:57:03.094Z,9.70
2022-12-26T00:58:03.025Z,9.70
2022-12-26T00:59:03.007Z,9.70
2022-12-26T01:00:03.018Z,9.70
2022-12-26T01:01:03.143Z,9.60
2022-12-26T01:02:03.220Z,9.60
2022-12-26T01:03:03.288Z,9.60
2022-12-26T01:04:03.119Z,9.60
2022-12-26T01:05:03.117Z,9.60
2022-12-26T01:06:03.104Z,9.60
2022-12-26T01:07:03.069Z,9.60
2022-12-26T01:08:20.562Z,9.60
2022-12-26T01:09:03.029Z,9.60
2022-12-26T01:10:03.231Z,9.60
2022-12-26T01:11:03.069Z,9.60
2022-12-26T01:12:03.166Z,9.60
2022-12-26T01:13:03.062Z,9.60
2022-12-26T01:14:03.107Z,9.60
2022-12-26T01:15:03.081Z,9.60
2022-12-26T01:16:03.050Z,9.60
2022-12-26T01:17:02.927Z,9.60
2022-12-26T01:18:02.825Z,9.60
2022-12-26T01:19:02.808Z,9.60
2022-12-26T01:20:02.790Z,9.70
2022-12-26T01:21:02.779Z,9.60
2022-12-26T01:22:02.641Z,9.60
2022-12-26T01:23:02.673Z,9.60
2022-12-26T01:24:02.647Z,9.70
2022-12-26T01:25:03.621Z,9.70
2022-12-26T01:26:16.128Z,9.60
2022-12-26T01:27:03.475Z,9.60
2022-12-26T01:28:03.447Z,9.60
2022-12-26T01:29:03.433Z,9.60
2022-12-26T01:30:03.405Z,9.60
2022-12-26T01:31:03.453Z,9.60
2022-12-26T01:32:03.387Z,9.60
2022-12-26T01:33:03.211Z,9.60
2022-12-26T01:34:03.314Z,9.60
2022-12-26T01:35:03.349Z,9.60
2022-12-26T01:36:03.320Z,9.60
2022-12-26T01:37:03.344Z,9.60
2022-12-26T01:38:03.398Z,9.60
2022-12-26T01:39:03.413Z,9.60
2022-12-26T01:40:03.346Z,9.60
2022-12-26T01:41:03.192Z,9.60
2022-12-26T01:42:03.135Z,9.70
2022-12-26T01:43:03.219Z,9.70
2022-12-26T01:44:03.200Z,9.70
2022-12-26T01:45:03.227Z,9.70
2022-12-26T01:46:03.500Z,9.70
2022-12-26T01:47:03.442Z,9.70
2022-12-26T01:48:03.382Z,9.70
2022-12-26T01:49:03.374Z,9.70
2022-12-26T01:50:03.397Z,9.80
2022-12-26T01:51:03.225Z,9.80
2022-12-26T01:52:03.188Z,9.80
2022-12-26T01:53:03.126Z,9.80
2022-12-26T01:54:38.968Z,9.80
2022-12-26T01:55:03.559Z,9.80
2022-12-26T01:56:03.571Z,9.80
2022-12-26T01:57:03.528Z,9.80
2022-12-26T01:58:03.437Z,9.80
2022-12-26T01:59:03.422Z,9.80
2022-12-26T02:00:03.342Z,9.80
2022-12-26T02:01:03.418Z,9.80
2022-12-26T02:02:03.500Z,9.80
2022-12-26T02:03:03.262Z,9.80
2022-12-26T02:04:03.129Z,9.80
2022-12-26T02:05:03.170Z,9.80
2022-12-26T02:06:03.077Z,9.80
2022-12-26T02:07:02.933Z,9.80
2022-12-26T02:08:02.959Z,9.80
2022-12-26T02:09:02.955Z,9.80
2022-12-26T02:10:02.953Z,9.80
2022-12-26T02:11:02.825Z,9.80
2022-12-26T02:12:33.216Z,9.80
2022-12-26T02:13:02.948Z,9.80
2022-12-26T02:14:02.912Z,9.80
2022-12-26T02:15:02.906Z,9.80
2022-12-26T02:16:02.696Z,9.80
2022-12-26T02:17:02.717Z,9.80
2022-12-26T02:18:02.794Z,9.80
2022-12-26T02:19:02.605Z,9.80
2022-12-26T02:20:02.653Z,9.80
2022-12-26T02:21:02.612Z,9.80
2022-12-26T02:22:02.650Z,9.80
2022-12-26T02:23:03.589Z,9.80
2022-12-26T02:24:03.510Z,9.80
2022-12-26T02:25:03.511Z,9.80
2022-12-26T02:26:03.485Z,9.80
2022-12-26T02:27:03.510Z,9.80
2022-12-26T02:28:03.502Z,9.90
2022-12-26T02:29:03.490Z,9.80
2022-12-26T02:30:03.480Z,9.90
2022-12-26T02:31:03.376Z,9.90
2022-12-26T02:32:03.452Z,9.90
2022-12-26T02:33:03.230Z,9.90
2022-12-26T02:34:03.237Z,9.90
2022-12-26T02:35:03.340Z,9.90
2022-12-26T02:36:03.205Z,9.90
2022-12-26T02:37:03.117Z,9.90
2022-12-26T02:38:03.066Z,9.90
2022-12-26T02:39:03.105Z,10.00
2022-12-26T02:40:03.531Z,10.00
2022-12-26T02:41:03.324Z,9.90
2022-12-26T02:42:03.303Z,10.00
2022-12-26T02:43:03.159Z,10.00
2022-12-26T02:44:03.283Z,10.00
2022-12-26T02:45:03.219Z,10.00
2022-12-26T02:46:03.264Z,10.00
2022-12-26T02:47:03.196Z,10.00
2022-12-26T02:48:03.104Z,10.00
2022-12-26T02:49:02.954Z,10.00
2022-12-26T02:50:02.977Z,10.00
2022-12-26T02:51:02.913Z,10.00
2022-12-26T02:52:02.813Z,10.00
2022-12-26T02:53:02.769Z,10.00
2022-12-26T02:54:02.841Z,10.00
2022-12-26T02:55:02.709Z,10.00
2022-12-26T02:56:02.701Z,10.00
2022-12-26T02:57:03.610Z,10.00
2022-12-26T02:58:03.470Z,10.00
2022-12-26T02:59:03.408Z,10.00
2022-12-26T03:00:03.431Z,10.10
2022-12-26T03:01:03.583Z,10.00
2022-12-26T03:02:03.598Z,10.00
2022-12-26T03:03:03.402Z,10.00
2022-12-26T03:04:03.319Z,10.10
2022-12-26T03:05:03.264Z,10.00
2022-12-26T03:06:03.249Z,10.00
2022-12-26T03:07:03.295Z,10.10
2022-12-26T03:08:03.196Z,10.00
2022-12-26T03:09:03.241Z,10.10
2022-12-26T03:10:03.100Z,10.10
2022-12-26T03:11:03.054Z,10.10
2022-12-26T03:12:02.963Z,10.10
2022-12-26T03:13:02.940Z,10.00
2022-12-26T03:14:02.860Z,10.00
2022-12-26T03:15:02.839Z,10.00
2022-12-26T03:16:03.098Z,10.10
2022-12-26T03:17:03.160Z,10.10
2022-12-26T03:18:03.004Z,10.10
2022-12-26T03:19:03.018Z,10.10
2022-12-26T03:20:03.001Z,10.00
2022-12-26T03:21:02.916Z,10.00
2022-12-26T03:22:02.868Z,10.00
2022-12-26T03:23:02.717Z,10.00
2022-12-26T03:24:02.632Z,10.00
2022-12-26T03:25:02.676Z,10.00
2022-12-26T03:26:03.587Z,10.00
2022-12-26T03:27:03.597Z,10.00
2022-12-26T03:28:03.483Z,10.00
2022-12-26T03:29:03.528Z,10.00
2022-12-26T03:30:03.435Z,10.00
2022-12-26T03:31:03.622Z,10.00
2022-12-26T03:32:03.399Z,10.00
2022-12-26T03:33:03.431Z,10.00
2022-12-26T03:34:03.437Z,10.00
2022-12-26T03:35:03.412Z,10.10
2022-12-26T03:36:03.470Z,10.00
2022-12-26T03:37:03.374Z,10.10
2022-12-26T03:38:03.388Z,10.10
2022-12-26T03:39:03.446Z,10.10
2022-12-26T03:40:03.391Z,10.10
2022-12-26T03:41:03.383Z,10.10
2022-12-26T03:42:03.199Z,10.10
2022-12-26T03:43:03.198Z,10.10
2022-12-26T03:44:03.045Z,10.10
2022-12-26T03:45:03.004Z,10.10
2022-12-26T03:46:02.918Z,10.10
2022-12-26T03:47:02.855Z,10.10
2022-12-26T03:48:02.688Z,10.10
2022-12-26T03:49:02.803Z,10.10
2022-12-26T03:50:02.632Z,10.10
2022-12-26T03:51:03.600Z,10.10
2022-12-26T03:52:03.569Z,10.10
2022-12-26T03:53:03.557Z,10.10
2022-12-26T03:54:03.445Z,10.10
2022-12-26T03:55:03.369Z,10.10
2022-12-26T03:56:03.389Z,10.10
2022-12-26T03:57:03.326Z,10.10
2022-12-26T03:58:03.231Z,10.10
2022-12-26T03:59:03.075Z,10.10
2022-12-26T04:00:03.169Z,10.10
2022-12-26T04:01:03.330Z,10.10
2022-12-26T04:02:03.323Z,10.10
2022-12-26T04:03:03.096Z,10.10
2022-12-26T04:04:03.264Z,10.10
2022-12-26T04:05:03.036Z,10.00
2022-12-26T04:06:03.208Z,10.10
2022-12-26T04:07:03.050Z,10.10
2022-12-26T04:08:02.920Z,10.00
2022-12-26T04:09:02.975Z,10.10
2022-12-26T04:10:02.869Z,10.10
2022-12-26T04:11:02.918Z,10.10
2022-12-26T04:12:02.897Z,10.10
2022-12-26T04:13:02.919Z,10.10
2022-12-26T04:14:02.933Z,10.10
2022-12-26T04:15:02.987Z,10.10
2022-12-26T04:16:03.027Z,10.10
2022-12-26T04:17:02.909Z,10.10
2022-12-26T04:18:02.788Z,10.10
2022-12-26T04:19:02.647Z,10.10
2022-12-26T04:20:02.667Z,10.10
2022-12-26T04:21:03.557Z,10.10
2022-12-26T04:22:03.449Z,10.10
2022-12-26T04:23:03.401Z,10.10
2022-12-26T04:24:03.348Z,10.10
2022-12-26T04:25:03.488Z,10.10
2022-12-26T04:26:03.469Z,10.10
2022-12-26T04:27:03.328Z,10.10
2022-12-26T04:28:03.416Z,10.10
2022-12-26T04:29:03.393Z,10.10
2022-12-26T04:30:03.391Z,10.10
2022-12-26T04:31:03.420Z,10.10
2022-12-26T04:32:03.318Z,10.10
2022-12-26T04:33:03.374Z,10.10
2022-12-26T04:34:03.267Z,10.10
2022-12-26T04:35:03.210Z,10.10
2022-12-26T04:36:03.154Z,10.10
2022-12-26T04:37:03.266Z,10.10
2022-12-26T04:38:03.326Z,10.10
2022-12-26T04:39:03.204Z,10.10
2022-12-26T04:40:03.150Z,10.10
2022-12-26T04:41:03.135Z,10.10
2022-12-26T04:42:03.126Z,10.10
2022-12-26T04:43:48.019Z,10.10
2022-12-26T04:44:03.163Z,10.10
2022-12-26T04:45:03.198Z,10.10
2022-12-26T04:46:03.122Z,10.10
2022-12-26T04:47:03.107Z,10.10
2022-12-26T04:48:03.150Z,10.10
2022-12-26T04:49:03.056Z,10.10
2022-12-26T04:50:03.065Z,10.10
2022-12-26T04:51:03.051Z,10.10
2022-12-26T04:52:02.942Z,10.10
2022-12-26T04:53:02.967Z,10.10
2022-12-26T04:54:02.899Z,10.10
2022-12-26T04:55:02.776Z,10.10
2022-12-26T04:56:02.682Z,10.10
2022-12-26T04:57:02.694Z,10.00
2022-12-26T04:58:03.492Z,10.00
2022-12-26T04:59:03.446Z,10.10
2022-12-26T05:00:03.517Z,10.00
2022-12-26T05:01:03.477Z,10.10
2022-12-26T05:02:03.550Z,10.10
2022-12-26T05:03:03.380Z,10.10
2022-12-26T05:04:03.565Z,10.10
2022-12-26T05:05:03.332Z,10.10
2022-12-26T05:06:03.361Z,10.10
2022-12-26T05:07:02.993Z,10.10
2022-12-26T05:08:02.748Z,10.10
2022-12-26T05:09:02.798Z,10.10
2022-12-26T05:10:02.699Z,10.10
2022-12-26T05:11:02.744Z,10.10
2022-12-26T05:12:02.777Z,10.10
2022-12-26T05:13:02.693Z,10.10
2022-12-26T05:14:03.240Z,10.10
2022-12-26T05:15:03.214Z,10.10
2022-12-26T05:16:03.207Z,10.10
2022-12-26T05:17:03.348Z,10.10
2022-12-26T05:18:03.272Z,10.10
2022-12-26T05:19:03.258Z,10.10
2022-12-26T05:20:03.174Z,10.10
2022-12-26T05:21:03.079Z,10.10
2022-12-26T05:22:03.052Z,10.10
2022-12-26T05:23:03.020Z,10.20
2022-12-26T05:24:02.952Z,10.20
2022-12-26T05:25:03.071Z,10.10
2022-12-26T05:26:03.090Z,10.10
2022-12-26T05:27:03.041Z,10.10
2022-12-26T05:28:02.977Z,10.10
2022-12-26T05:29:02.912Z,10.10
2022-12-26T05:30:02.871Z,10.10
2022-12-26T05:31:02.900Z,10.20
2022-12-26T05:32:02.826Z,10.10
2022-12-26T05:33:02.658Z,10.20
2022-12-26T05:34:02.675Z,10.20
2022-12-26T05:35:02.626Z,10.10
2022-12-26T05:36:03.561Z,10.20
2022-12-26T05:37:03.565Z,10.10
2022-12-26T05:38:03.599Z,10.20
2022-12-26T05:39:03.563Z,10.20
2022-12-26T05:40:03.571Z,10.20
2022-12-26T05:41:03.516Z,10.20
2022-12-26T05:42:03.391Z,10.20
2022-12-26T05:43:03.349Z,10.20
2022-12-26T05:44:03.264Z,10.20
2022-12-26T05:45:03.283Z,10.20
2022-12-26T05:46:03.310Z,10.20
2022-12-26T05:47:03.373Z,10.20
2022-12-26T05:48:03.416Z,10.20
2022-12-26T05:49:03.278Z,10.20
2022-12-26T05:50:03.325Z,10.20
2022-12-26T05:51:03.330Z,10.20
2022-12-26T05:52:03.232Z,10.20
2022-12-26T05:53:03.143Z,10.20
2022-12-26T05:54:03.029Z,10.20
2022-12-26T05:55:03.041Z,10.20
2022-12-26T05:56:02.983Z,10.20
2022-12-26T05:57:02.990Z,10.20
2022-12-26T05:58:02.941Z,10.20
2022-12-26T05:59:02.836Z,10.20
2022-12-26T06:00:03.502Z,10.20
2022-12-26T06:01:03.573Z,10.20
2022-12-26T06:02:03.699Z,10.10
2022-12-26T06:03:03.601Z,10.10
2022-12-26T06:04:03.509Z,10.10
2022-12-26T06:05:03.470Z,10.10
2022-12-26T06:06:03.353Z,10.10
2022-12-26T06:07:03.339Z,10.10
2022-12-26T06:08:03.314Z,10.10
2022-12-26T06:09:03.146Z,10.10
2022-12-26T06:10:03.142Z,10.10
2022-12-26T06:11:03.060Z,10.10
2022-12-26T06:12:03.094Z,10.10
2022-12-26T06:13:03.224Z,10.10
2022-12-26T06:14:03.138Z,10.10
2022-12-26T06:15:02.862Z,10.10
2022-12-26T06:16:02.810Z,10.10
2022-12-26T06:17:02.842Z,10.10
2022-12-26T06:18:02.843Z,10.10
2022-12-26T06:19:02.824Z,10.10
2022-12-26T06:20:02.974Z,10.10
2022-12-26T06:21:02.891Z,10.10
2022-12-26T06:22:02.731Z,10.10
2022-12-26T06:23:02.787Z,10.10
2022-12-26T06:24:02.816Z,10.10
2022-12-26T06:25:02.691Z,10.10
2022-12-26T06:26:02.679Z,10.10
2022-12-26T06:27:02.909Z,10.10
2022-12-26T06:28:03.461Z,10.10
2022-12-26T06:29:03.378Z,10.10
2022-12-26T06:30:03.326Z,10.10
2022-12-26T06:31:03.330Z,10.10
2022-12-26T06:32:03.666Z,10.10
2022-12-26T06:33:03.506Z,10.10
2022-12-26T06:34:03.385Z,10.10
2022-12-26T06:35:03.426Z,10.10
2022-12-26T06:36:03.471Z,10.10
2022-12-26T06:37:02.701Z,10.10
2022-12-26T06:38:02.631Z,10.10
2022-12-26T06:39:03.177Z,10.10
2022-12-26T06:40:03.041Z,10.10
2022-12-26T06:41:03.083Z,10.10
2022-12-26T06:42:02.935Z,10.10
2022-12-26T06:43:03.467Z,10.10
2022-12-26T06:44:03.385Z,10.10
2022-12-26T06:45:03.560Z,10.10
2022-12-26T06:46:02.582Z,10.10
2022-12-26T06:47:03.642Z,10.10
2022-12-26T06:48:03.594Z,10.10
2022-12-26T06:49:03.426Z,10.10
2022-12-26T06:50:03.400Z,10.10
2022-12-26T06:51:03.297Z,10.00
2022-12-26T06:52:03.279Z,10.00
2022-12-26T06:53:03.219Z,10.00
2022-12-26T06:54:03.179Z,10.00
2022-12-26T06:55:03.156Z,10.00
2022-12-26T06:56:03.117Z,10.00
2022-12-26T06:57:03.212Z,10.00
2022-12-26T06:58:03.178Z,10.00
2022-12-26T06:59:03.222Z,10.00
2022-12-26T07:00:03.080Z,10.00
2022-12-26T07:01:03.071Z,10.00
2022-12-26T07:02:02.959Z,10.00
2022-12-26T07:03:02.969Z,10.00
2022-12-26T07:04:02.877Z,10.00
2022-12-26T07:05:02.803Z,9.90
2022-12-26T07:06:03.360Z,9.90
2022-12-26T07:07:03.299Z,9.90
2022-12-26T07:08:03.215Z,9.90
2022-12-26T07:09:03.407Z,9.90
2022-12-26T07:10:03.175Z,10.00
2022-12-26T07:11:03.431Z,10.00
2022-12-26T07:12:03.513Z,10.00
2022-12-26T07:13:02.647Z,10.00
2022-12-26T07:14:03.637Z,10.00
2022-12-26T07:15:02.666Z,10.00
2022-12-26T07:16:03.531Z,10.00
2022-12-26T07:17:03.584Z,10.00
2022-12-26T07:18:03.512Z,10.00
2022-12-26T07:19:03.626Z,10.00
2022-12-26T07:20:03.487Z,10.00
2022-12-26T07:21:03.547Z,10.00
2022-12-26T07:22:03.410Z,10.00
2022-12-26T07:23:03.312Z,10.10
2022-12-26T07:24:03.401Z,10.10
2022-12-26T07:25:03.227Z,10.10
2022-12-26T07:26:03.308Z,10.10
2022-12-26T07:27:03.213Z,10.10
2022-12-26T07:28:03.155Z,10.10
2022-12-26T07:29:03.111Z,10.10
2022-12-26T07:30:03.028Z,10.10
2022-12-26T07:31:02.898Z,10.10
2022-12-26T07:32:02.864Z,10.10
2022-12-26T07:33:02.875Z,10.10
2022-12-26T07:34:02.883Z,10.10
2022-12-26T07:35:02.731Z,10.10
2022-12-26T07:36:02.664Z,10.10
2022-12-26T07:37:02.674Z,10.10
2022-12-26T07:38:02.632Z,10.10
2022-12-26T07:39:02.677Z,10.20
2022-12-26T07:40:03.534Z,10.20
2022-12-26T07:41:03.485Z,10.20
2022-12-26T07:42:03.347Z,10.20
2022-12-26T07:43:03.253Z,10.20
2022-12-26T07:44:03.369Z,10.20
2022-12-26T07:45:03.404Z,10.20
2022-12-26T07:46:03.488Z,10.20
2022-12-26T07:47:03.276Z,10.20
2022-12-26T07:48:03.230Z,10.20
2022-12-26T07:49:03.155Z,10.20
2022-12-26T07:50:03.054Z,10.20
2022-12-26T07:51:03.050Z,10.30
2022-12-26T07:52:03.195Z,10.20
2022-12-26T07:53:03.218Z,10.30
2022-12-26T07:54:07.210Z,10.30
2022-12-26T07:55:03.302Z,10.30
2022-12-26T07:56:03.136Z,10.30
2022-12-26T07:57:30.204Z,10.30
2022-12-26T07:58:02.903Z,10.30
2022-12-26T07:59:03.197Z,10.30
2022-12-26T08:00:02.978Z,10.30
2022-12-26T08:01:02.852Z,10.30
2022-12-26T08:02:03.025Z,10.30
2022-12-26T08:03:07.063Z,10.40
2022-12-26T08:04:02.867Z,10.40
2022-12-26T08:05:03.584Z,10.40
2022-12-26T08:06:03.476Z,10.40
2022-12-26T08:07:03.511Z,10.40
2022-12-26T08:08:03.440Z,10.40
2022-12-26T08:09:03.488Z,10.40
2022-12-26T08:10:03.330Z,10.40
2022-12-26T08:11:03.268Z,10.40
2022-12-26T08:12:03.209Z,10.40
2022-12-26T08:13:03.304Z,10.40
2022-12-26T08:14:03.232Z,10.40
2022-12-26T08:15:03.164Z,10.40
2022-12-26T08:16:03.136Z,10.40
2022-12-26T08:17:03.229Z,10.40
2022-12-26T08:18:03.047Z,10.40
2022-12-26T08:19:02.982Z,10.40
2022-12-26T08:20:03.009Z,10.40
2022-12-26T08:21:02.947Z,10.40
2022-12-26T08:22:02.798Z,10.40
2022-12-26T08:23:02.719Z,10.40
2022-12-26T08:24:02.695Z,10.50
2022-12-26T08:25:02.726Z,10.50
2022-12-26T08:26:02.600Z,10.50
2022-12-26T08:27:03.589Z,10.50
2022-12-26T08:28:03.571Z,10.50
2022-12-26T08:29:03.505Z,10.50
2022-12-26T08:30:03.344Z,10.50
2022-12-26T08:31:03.292Z,10.50
2022-12-26T08:32:03.253Z,10.50
2022-12-26T08:33:03.262Z,10.60
2022-12-26T08:34:03.210Z,10.60
2022-12-26T08:35:03.124Z,10.60
2022-12-26T08:36:03.178Z,10.60
2022-12-26T08:37:03.079Z,10.70
2022-12-26T08:38:03.060Z,10.70
2022-12-26T08:39:03.071Z,10.70
2022-12-26T08:40:03.197Z,10.70
2022-12-26T08:41:03.124Z,10.70
2022-12-26T08:42:02.985Z,10.70
2022-12-26T08:43:21.877Z,10.80
2022-12-26T08:44:28.105Z,10.80
2022-12-26T08:45:03.317Z,10.80
2022-12-26T08:46:03.366Z,10.80
2022-12-26T08:47:03.129Z,10.80
2022-12-26T08:48:03.167Z,10.80
2022-12-26T08:49:03.008Z,10.80
2022-12-26T08:50:02.936Z,10.80
2022-12-26T08:51:02.924Z,10.80
2022-12-26T08:52:02.867Z,10.80
2022-12-26T08:53:02.856Z,10.80
2022-12-26T08:54:02.785Z,10.80
2022-12-26T08:55:02.808Z,10.90
2022-12-26T08:56:02.740Z,10.80
2022-12-26T08:57:02.796Z,10.80
2022-12-26T08:58:02.636Z,10.80
2022-12-26T08:59:02.624Z,10.80
2022-12-26T09:00:02.620Z,10.80
2022-12-26T09:01:03.684Z,10.90
2022-12-26T09:02:03.713Z,10.90
2022-12-26T09:03:03.578Z,10.80
2022-12-26T09:04:03.410Z,10.90
2022-12-26T09:05:03.568Z,10.90
2022-12-26T09:06:06.136Z,10.90
2022-12-26T09:07:03.416Z,10.90
2022-12-26T09:08:03.332Z,10.90
2022-12-26T09:09:03.250Z,10.90
2022-12-26T09:10:03.242Z,10.90
2022-12-26T09:11:03.176Z,10.90
2022-12-26T09:12:03.170Z,10.90
2022-12-26T09:13:03.202Z,10.90
2022-12-26T09:14:03.109Z,10.90
2022-12-26T09:15:03.086Z,10.90
2022-12-26T09:16:03.103Z,10.90
2022-12-26T09:17:03.032Z,10.90
2022-12-26T09:18:03.121Z,10.80
2022-12-26T09:19:03.101Z,10.80
2022-12-26T09:20:03.215Z,10.80
2022-12-26T09:21:03.091Z,10.80
2022-12-26T09:22:03.143Z,10.80
2022-12-26T09:23:03.027Z,10.80
2022-12-26T09:24:03.234Z,10.80
2022-12-26T09:25:03.192Z,10.80
2022-12-26T09:26:03.093Z,10.80
2022-12-26T09:27:03.068Z,10.80
2022-12-26T09:28:03.018Z,10.80
2022-12-26T09:29:02.908Z,10.80
2022-12-26T09:30:02.927Z,10.80
2022-12-26T09:31:02.912Z,10.80
2022-12-26T09:32:02.901Z,10.80
2022-12-26T09:33:02.788Z,10.80
2022-12-26T09:34:02.618Z,10.80
2022-12-26T09:35:02.702Z,10.80
2022-12-26T09:36:04.640Z,10.80
2022-12-26T09:37:02.662Z,10.80
2022-12-26T09:38:03.539Z,10.80
2022-12-26T09:39:03.424Z,10.80
2022-12-26T09:40:03.402Z,10.80
2022-12-26T09:41:03.380Z,10.80
2022-12-26T09:42:03.391Z,10.80
2022-12-26T09:43:03.358Z,10.80
2022-12-26T09:44:03.381Z,10.80
2022-12-26T09:45:03.403Z,10.80
2022-12-26T09:46:03.433Z,10.80
2022-12-26T09:47:03.358Z,10.80
2022-12-26T09:48:03.253Z,10.80
2022-12-26T09:49:03.207Z,10.80
2022-12-26T09:50:03.166Z,10.80
2022-12-26T09:51:03.107Z,10.80
2022-12-26T09:52:03.028Z,10.80
2022-12-26T09:53:02.976Z,10.80
2022-12-26T09:54:02.857Z,10.80
2022-12-26T09:55:02.796Z,10.80
2022-12-26T09:56:02.662Z,10.80
2022-12-26T09:57:03.585Z,10.80
2022-12-26T09:58:02.595Z,10.80
2022-12-26T09:59:03.556Z,10.80
2022-12-26T10:00:03.540Z,10.80
2022-12-26T10:01:03.577Z,10.80
2022-12-26T10:02:03.630Z,10.80
2022-12-26T10:03:03.538Z,10.80
2022-12-26T10:04:03.491Z,10.80
2022-12-26T10:05:03.513Z,10.80
2022-12-26T10:06:03.841Z,10.80
2022-12-26T10:07:03.361Z,10.80
2022-12-26T10:08:03.310Z,10.80
2022-12-26T10:09:03.356Z,10.80
2022-12-26T10:10:03.398Z,10.80
2022-12-26T10:11:03.509Z,10.80
2022-12-26T10:12:03.311Z,10.80
2022-12-26T10:13:03.217Z,10.80
2022-12-26T10:14:03.216Z,10.80
2022-12-26T10:15:03.083Z,10.80
2022-12-26T10:16:03.066Z,10.80
2022-12-26T10:17:02.686Z,10.90
2022-12-26T10:18:02.584Z,10.90
2022-12-26T10:19:03.524Z,10.90
2022-12-26T10:20:03.691Z,10.90
2022-12-26T10:21:03.532Z,10.90
2022-12-26T10:22:03.301Z,10.90
2022-12-26T10:23:03.312Z,10.90
2022-12-26T10:24:03.267Z,10.90
2022-12-26T10:25:03.322Z,10.90
2022-12-26T10:26:03.333Z,10.90
2022-12-26T10:27:03.191Z,10.90
2022-12-26T10:28:03.155Z,10.90
2022-12-26T10:29:03.180Z,10.90
2022-12-26T10:30:03.031Z,10.90
2022-12-26T10:31:03.059Z,10.90
2022-12-26T10:32:03.023Z,10.90
2022-12-26T10:33:03.376Z,11.00
2022-12-26T10:34:03.259Z,10.90
2022-12-26T10:35:03.195Z,11.00
2022-12-26T10:36:03.304Z,11.00
2022-12-26T10:37:03.220Z,11.00
2022-12-26T10:38:03.080Z,11.00
2022-12-26T10:39:03.022Z,10.90
2022-12-26T10:40:02.871Z,10.90
2022-12-26T10:41:02.896Z,10.90
2022-12-26T10:42:02.809Z,10.90
2022-12-26T10:43:02.891Z,10.90
2022-12-26T10:44:02.731Z,10.90
2022-12-26T10:45:02.714Z,10.90
2022-12-26T10:46:02.897Z,10.90
2022-12-26T10:47:02.816Z,10.90
2022-12-26T10:48:02.783Z,10.90
2022-12-26T10:49:02.631Z,10.90
2022-12-26T10:50:03.555Z,10.90
2022-12-26T10:51:03.568Z,10.90
2022-12-26T10:52:03.489Z,10.90
2022-12-26T10:53:03.625Z,10.90
2022-12-26T10:54:03.515Z,10.90
2022-12-26T10:55:27.818Z,10.90
2022-12-26T10:56:03.414Z,10.90
2022-12-26T10:57:03.238Z,10.90
2022-12-26T10:58:03.127Z,10.90
2022-12-26T10:59:03.030Z,10.90
2022-12-26T11:00:03.043Z,10.90
2022-12-26T11:01:02.880Z,10.90
2022-12-26T11:02:06.777Z,10.90
2022-12-26T11:03:02.830Z,10.80
2022-12-26T11:04:02.803Z,10.80
2022-12-26T11:05:40.123Z,10.90
2022-12-26T11:06:08.720Z,10.90
2022-12-26T11:07:02.944Z,10.90
2022-12-26T11:08:02.841Z,10.90
2022-12-26T11:09:02.753Z,10.90
2022-12-26T11:10:02.720Z,10.90
2022-12-26T11:11:02.780Z,10.90
2022-12-26T11:12:02.697Z,10.90
2022-12-26T11:13:03.573Z,10.90
2022-12-26T11:14:03.602Z,10.90
2022-12-26T11:15:02.610Z,10.90
2022-12-26T11:16:03.605Z,10.90
2022-12-26T11:17:02.763Z,10.90
2022-12-26T11:18:02.727Z,10.90
2022-12-26T11:19:02.946Z,10.90
2022-12-26T11:20:02.802Z,10.90
2022-12-26T11:21:05.646Z,10.90
2022-12-26T11:22:02.865Z,10.90
2022-12-26T11:23:02.936Z,10.90
2022-12-26T11:24:02.994Z,10.90
2022-12-26T11:25:03.022Z,10.90
2022-12-26T11:26:02.856Z,10.90
2022-12-26T11:27:05.706Z,10.90
2022-12-26T11:28:02.929Z,10.90
2022-12-26T11:29:02.887Z,10.90
2022-12-26T11:30:02.782Z,10.90
2022-12-26T11:31:02.717Z,10.90
2022-12-26T11:32:02.771Z,10.90
2022-12-26T11:33:04.119Z,10.90
2022-12-26T11:34:02.676Z,10.90
2022-12-26T11:35:03.616Z,10.80
2022-12-26T11:36:03.479Z,10.80
2022-12-26T11:37:03.485Z,10.80
2022-12-26T11:38:03.360Z,10.80
2022-12-26T11:39:03.347Z,10.80
2022-12-26T11:40:03.422Z,10.80
2022-12-26T11:41:03.378Z,10.80
2022-12-26T11:42:03.318Z,10.80
2022-12-26T11:43:03.181Z,10.80
2022-12-26T11:44:03.119Z,10.70
2022-12-26T11:45:03.062Z,10.70
2022-12-26T11:46:03.229Z,10.70
2022-12-26T11:47:02.922Z,10.70
2022-12-26T11:48:02.889Z,10.70
2022-12-26T11:49:02.804Z,10.70
2022-12-26T11:50:03.035Z,10.70
2022-12-26T11:51:03.003Z,10.60
2022-12-26T11:52:02.901Z,10.60
2022-12-26T11:53:02.954Z,10.60
2022-12-26T11:54:03.000Z,10.60
2022-12-26T11:55:02.865Z,10.60
2022-12-26T11:56:02.832Z,10.60
2022-12-26T11:57:02.807Z,10.60
2022-12-26T11:58:02.685Z,10.60
2022-12-26T11:59:02.588Z,10.60
2022-12-26T12:00:03.569Z,10.60
2022-12-26T12:01:03.571Z,10.60
2022-12-26T12:02:03.667Z,10.60
2022-12-26T12:03:03.537Z,10.60
2022-12-26T12:04:03.468Z,10.60
2022-12-26T12:05:02.687Z,10.60
2022-12-26T12:06:02.614Z,10.60
2022-12-26T12:07:02.587Z,10.60
2022-12-26T12:08:02.898Z,10.60
2022-12-26T12:09:05.931Z,10.60
2022-12-26T12:10:02.769Z,10.60
2022-12-26T12:11:02.701Z,10.60
2022-12-26T12:12:02.588Z,10.60
2022-12-26T12:13:02.728Z,10.60
2022-12-26T12:14:03.541Z,10.60
2022-12-26T12:15:03.435Z,10.50
2022-12-26T12:16:03.513Z,10.50
2022-12-26T12:17:08.579Z,10.50
2022-12-26T12:18:03.481Z,10.50
2022-12-26T12:19:03.444Z,10.50
2022-12-26T12:20:03.417Z,10.50
2022-12-26T12:21:03.368Z,10.50
2022-12-26T12:22:03.298Z,10.50
2022-12-26T12:23:03.222Z,10.50
2022-12-26T12:24:03.122Z,10.50
2022-12-26T12:25:03.039Z,10.50
2022-12-26T12:26:03.011Z,10.40
2022-12-26T12:27:05.127Z,10.40
2022-12-26T12:28:02.945Z,10.40
2022-12-26T12:29:02.832Z,10.40
2022-12-26T12:30:02.774Z,10.40
2022-12-26T12:31:02.735Z,10.40
2022-12-26T12:32:02.812Z,10.40
2022-12-26T12:33:02.621Z,10.40
2022-12-26T12:34:03.571Z,10.40
2022-12-26T12:35:03.466Z,10.40
2022-12-26T12:36:03.392Z,10.40
2022-12-26T12:37:03.422Z,10.40
2022-12-26T12:38:03.439Z,10.40
2022-12-26T12:39:03.281Z,10.40
2022-12-26T12:40:03.139Z,10.40
2022-12-26T12:41:03.187Z,10.40
2022-12-26T12:42:02.987Z,10.40
2022-12-26T12:43:02.923Z,10.30
2022-12-26T12:44:02.946Z,10.40
2022-12-26T12:45:02.956Z,10.30
2022-12-26T12:46:02.992Z,10.30
2022-12-26T12:47:02.981Z,10.30
2022-12-26T12:48:02.953Z,10.30
2022-12-26T12:49:02.865Z,10.30
2022-12-26T12:50:02.686Z,10.30
2022-12-26T12:51:02.590Z,10.30
2022-12-26T12:52:03.551Z,10.30
2022-12-26T12:53:03.505Z,10.30
2022-12-26T12:54:03.395Z,10.30
2022-12-26T12:55:03.333Z,10.30
2022-12-26T12:56:03.265Z,10.40
2022-12-26T12:57:03.268Z,10.30
2022-12-26T12:58:03.246Z,10.40